Погода Хорнигина неделю

Мазовецкое воеводство, Польша

23 - 29 июля
  • 23июля
    Сегодня
    +13°
    +27°
    Облачно с прояснениями
    ВремяПогодаТемператураВлажностьДавлениеВетер, м/сВероятность осадков
    02:00Практически безоблачно+20°C83 %752 мм3.8 м/с2 %
    05:00Пасмурно, сплошная облачность+19°C85 %752 мм3.8 м/с6 %
    08:00Облачно с прояснениями+21°C83 %753 мм4.7 м/с34 %
    11:00Небольшая облачность+23°C68 %753 мм3.9 м/с29 %
    14:00Облачно с прояснениями+26°C51 %753 мм3.9 м/с17 %
    17:00Облачно с прояснениями+27°C45 %752 мм3.2 м/с7 %
    20:00Практически безоблачно+23°C59 %752 мм2.2 м/с2 %
    23:00Практически безоблачно+19°C73 %752 мм1.9 м/с2 %
  • 24июля
    Среда
    +15°
    +27°
    Облачно с прояснениями
    ВремяПогодаТемператураВлажностьДавлениеВетер, м/сВероятность осадков
    02:00Ясно и безоблачно+15°C83 %751 мм1.3 м/с2 %
    05:00Ясно и безоблачно+14°C88 %751 мм1.2 м/с2 %
    08:00Облачно с прояснениями+20°C73 %751 мм0.3 м/с2 %
    11:00Облачно с прояснениями+25°C46 %750 мм1.2 м/с15 %
    14:00Облачно с прояснениями+26°C37 %749 мм1.7 м/с11 %
    17:00Облачно с прояснениями+24°C39 %748 мм2.7 м/с22 %
    20:00Облачно с прояснениями+22°C56 %749 мм4.0 м/с28 %
    23:00Пасмурно, дождь+17°C87 %749 мм4.0 м/с48 %
  • 25июля
    Четверг
    +14°
    +23°
    Пасмурно, дождь
    ВремяПогодаТемператураВлажностьДавлениеВетер, м/сВероятность осадков
    02:00Пасмурно, дождь+16°C93 %749 мм2.2 м/с57 %
    05:00Пасмурно, дождь+15°C96 %749 мм3.7 м/с63 %
    08:00Пасмурно, ливень+17°C91 %749 мм3.5 м/с67 %
    11:00Пасмурно, ливень+18°C89 %749 мм3.0 м/с75 %
    14:00Пасмурно, дождь+20°C82 %749 мм3.9 м/с69 %
    17:00Облачно с прояснениями, ливень+22°C71 %749 мм4.2 м/с64 %
    20:00Небольшая облачность+20°C81 %749 мм2.8 м/с47 %
    23:00Ясно и безоблачно+17°C84 %750 мм3.5 м/с16 %
  • 26июля
    Пятница
    +14°
    +25°
    Облачно с прояснениями
    ВремяПогодаТемператураВлажностьДавлениеВетер, м/сВероятность осадков
    02:00Ясно и безоблачно+16°C92 %750 мм3.4 м/с12 %
    05:00Ясно и безоблачно+15°C95 %751 мм3.0 м/с17 %
    08:00Практически безоблачно+18°C81 %751 мм3.8 м/с21 %
    11:00Практически безоблачно+22°C59 %751 мм3.3 м/с40 %
    14:00Облачно с прояснениями+24°C49 %751 мм3.4 м/с29 %
    17:00Небольшая облачность+25°C46 %751 мм2.6 м/с23 %
    20:00Ясно и безоблачно+23°C60 %752 мм2.2 м/с15 %
    23:00Облачно с прояснениями+18°C75 %753 мм1.7 м/с3 %
  • 27июля
    Суббота
    +17°
    +29°
    Ясно и безоблачно
    ВремяПогодаТемператураВлажностьДавлениеВетер, м/сВероятность осадков
    02:00Практически безоблачно+16°C82 %753 мм1.7 м/с2 %
    05:00Ясно и безоблачно+14°C84 %753 мм0.6 м/с2 %
    08:00Практически безоблачно+21°C73 %754 мм0.8 м/с2 %
    11:00Ясно и безоблачно+26°C48 %754 мм1.3 м/с2 %
    14:00Ясно и безоблачно+28°C42 %754 мм1.9 м/с6 %
    17:00Ясно и безоблачно+29°C40 %754 мм2.2 м/с4 %
    20:00Ясно и безоблачно+25°C59 %754 мм1.9 м/с2 %
    23:00Практически безоблачно+22°C66 %754 мм2.8 м/с2 %
Мы используем cookies
Соглашаюсь